createdAt,value
2023-01-17T05:54:28.381Z,29
2023-01-17T05:57:28.567Z,29.3
2023-01-17T06:00:29.017Z,29.3
2023-01-17T06:03:29.116Z,29.3
2023-01-17T06:06:29.265Z,29.3
2023-01-17T06:09:28.719Z,29.3
2023-01-17T06:12:28.297Z,29.3
2023-01-17T06:15:29.132Z,29.3
2023-01-17T06:18:28.269Z,29.3
2023-01-17T06:21:28.613Z,29.3
2023-01-17T06:24:28.931Z,29.3
2023-01-17T06:27:28.384Z,29.3
2023-01-17T06:30:28.753Z,29.3
2023-01-17T06:33:29.182Z,29.3
2023-01-17T06:36:29.065Z,29.3
2023-01-17T06:39:28.466Z,29.3
2023-01-17T06:42:28.770Z,29.3
2023-01-17T06:45:28.464Z,29.3
2023-01-17T06:48:28.779Z,29.3
2023-01-17T06:51:28.378Z,29.3
2023-01-17T06:54:28.952Z,29.3
2023-01-17T07:15:29.097Z,22.3
2023-01-17T07:18:28.593Z,11.5
2023-01-17T07:21:28.839Z,1.1
2023-01-17T07:24:28.756Z,1.8
2023-01-17T07:27:28.453Z,2.7
2023-01-17T07:30:28.907Z,3.3
2023-01-17T07:33:28.811Z,4.3
2023-01-17T07:36:29.180Z,5
2023-01-17T07:39:28.857Z,5.6
2023-01-17T07:42:28.732Z,6.9
2023-01-17T07:45:29.036Z,7.4
2023-01-17T07:48:28.473Z,8.6
2023-01-17T07:51:29.020Z,10.7
2023-01-17T07:54:29.016Z,13.9
2023-01-17T07:57:28.396Z,15.7
2023-01-17T08:00:28.302Z,17
2023-01-17T08:03:29.057Z,18.6
2023-01-17T08:06:28.461Z,20.3
2023-01-17T08:09:29.158Z,22
2023-01-17T08:12:28.752Z,22.8
2023-01-17T08:15:28.913Z,24.3
2023-01-17T08:18:28.347Z,25.6
2023-01-17T08:21:29.005Z,26.6
2023-01-17T08:24:29.156Z,26.1
2023-01-17T08:27:28.536Z,24
2023-01-17T08:30:29.802Z,21.6
2023-01-17T08:33:28.838Z,21.3
2023-01-17T08:36:28.288Z,23.1
2023-01-17T08:39:28.835Z,25.8
2023-01-17T08:42:28.275Z,39.4
2023-01-17T08:45:28.626Z,65.6
2023-01-17T08:48:28.675Z,93.9
2023-01-17T08:51:29.022Z,102.2
2023-01-17T08:54:28.269Z,106.6
2023-01-17T08:57:28.997Z,124.6
2023-01-17T09:00:29.001Z,148.1
2023-01-17T09:03:29.087Z,163.3
2023-01-17T09:06:28.347Z,161.6
2023-01-17T09:09:29.000Z,121
2023-01-17T09:12:28.438Z,87.2
2023-01-17T09:15:29.034Z,55.9
2023-01-17T09:18:28.430Z,59.6
2023-01-17T09:21:28.119Z,89
2023-01-17T09:24:28.436Z,112.8
2023-01-17T09:27:28.761Z,122.4
2023-01-17T09:30:28.590Z,125
2023-01-17T09:33:28.432Z,130.8
2023-01-17T09:36:28.761Z,134.5
2023-01-17T09:39:28.527Z,121.1
2023-01-17T09:42:28.432Z,104.2
2023-01-17T09:45:29.161Z,68.9
2023-01-17T09:48:28.585Z,49.6
2023-01-17T09:51:28.387Z,50.7
2023-01-17T09:54:28.676Z,60.3
2023-01-17T09:57:29.128Z,76
2023-01-17T10:00:28.683Z,83.3
2023-01-17T10:03:29.415Z,95.2
2023-01-17T10:06:28.943Z,106.6
2023-01-17T10:09:28.518Z,121.7
2023-01-17T10:12:29.007Z,136.7
2023-01-17T10:15:28.780Z,146.8
2023-01-17T10:18:30.438Z,155.5
2023-01-17T10:21:28.760Z,159.9
2023-01-17T10:24:28.266Z,162.6
2023-01-17T10:27:28.522Z,155.7
2023-01-17T10:30:32.669Z,142.3
2023-01-17T10:33:28.454Z,130.6
2023-01-17T10:36:29.001Z,134.6
2023-01-17T10:39:28.437Z,147.8
2023-01-17T10:42:28.188Z,160.4
2023-01-17T10:45:28.493Z,163.3
2023-01-17T10:48:28.272Z,164.7
2023-01-17T10:51:29.346Z,168.2
2023-01-17T10:54:29.032Z,172.5
2023-01-17T10:58:11.810Z,178.1
2023-01-17T11:00:29.226Z,204.4
2023-01-17T11:03:28.793Z,225.3
2023-01-17T11:06:28.351Z,252.6
2023-01-17T11:09:28.659Z,209.4
2023-01-17T11:12:28.354Z,178.4
2023-01-17T11:15:29.264Z,107.9
2023-01-17T11:18:28.984Z,95.9
2023-01-17T11:21:28.195Z,160.4
2023-01-17T11:24:28.364Z,191
2023-01-17T11:27:29.084Z,230
2023-01-17T11:30:29.090Z,229.8
2023-01-17T11:33:30.735Z,240.2
2023-01-17T11:36:28.352Z,248.1
2023-01-17T11:39:28.427Z,252.6
2023-01-17T11:42:28.988Z,253.7
2023-01-17T11:45:28.357Z,240.7
2023-01-17T11:48:28.269Z,234.8
2023-01-17T11:51:28.749Z,216.5
2023-01-17T11:54:29.059Z,188.8
2023-01-17T11:57:28.523Z,136.8
2023-01-17T12:01:16.778Z,117.7
2023-01-17T12:03:28.154Z,111.5
2023-01-17T12:06:28.789Z,133.6
2023-01-17T12:09:28.937Z,133.2
2023-01-17T12:12:28.537Z,115.5
2023-01-17T12:15:28.943Z,100.8
2023-01-17T12:18:29.050Z,147.8
2023-01-17T12:21:28.377Z,183.9
2023-01-17T12:24:28.784Z,242
2023-01-17T12:27:29.147Z,289.9
2023-01-17T12:30:28.588Z,333.6
2023-01-17T12:33:28.095Z,379
2023-01-17T12:36:28.774Z,374.3
2023-01-17T12:39:28.673Z,324.2
2023-01-17T12:42:29.151Z,278.8
2023-01-17T12:45:28.512Z,291
2023-01-17T12:48:28.597Z,330
2023-01-17T12:51:29.177Z,311.3
2023-01-17T12:54:28.730Z,264.1
2023-01-17T12:57:28.506Z,236.4
2023-01-17T13:00:28.895Z,213.5
2023-01-17T13:03:28.676Z,209.5
2023-01-17T13:06:28.995Z,208.5
2023-01-17T13:09:28.698Z,208.9
2023-01-17T13:12:29.023Z,182
2023-01-17T13:15:28.829Z,135
2023-01-17T13:18:28.776Z,117.8
2023-01-17T13:21:28.417Z,116.3
2023-01-17T13:24:28.838Z,119.6
2023-01-17T13:27:28.750Z,138.6
2023-01-17T13:30:36.764Z,144.9
2023-01-17T13:33:28.357Z,166.9
2023-01-17T13:36:28.510Z,181.7
2023-01-17T13:39:29.071Z,313.5
2023-01-17T13:42:29.137Z,735
2023-01-17T13:45:29.496Z,823.9
2023-01-17T13:48:29.089Z,1112.6
2023-01-17T13:51:28.590Z,1255.6
2023-01-17T13:54:29.155Z,1662.3
2023-01-17T13:57:30.588Z,1769.8
2023-01-17T14:00:37.420Z,1285.5
2023-01-17T14:03:29.094Z,607.3
2023-01-17T14:06:28.535Z,851.6
2023-01-17T14:09:29.094Z,1242.8
2023-01-17T14:12:28.701Z,1582.2
2023-01-17T14:15:29.177Z,1047.8
2023-01-17T14:18:28.858Z,297.4
2023-01-17T14:21:28.269Z,160
2023-01-17T14:24:28.621Z,134.5
2023-01-17T14:27:29.067Z,90.1
2023-01-17T14:30:32.429Z,70.6
2023-01-17T14:33:29.010Z,53.3
2023-01-17T14:36:28.934Z,26.3
2023-01-17T14:39:28.587Z,18
2023-01-17T14:42:29.318Z,16.6
2023-01-17T14:45:28.661Z,28.4
2023-01-17T14:48:29.343Z,64.2
2023-01-17T14:51:28.994Z,109.8
2023-01-17T14:54:28.995Z,124.3
2023-01-17T14:57:28.508Z,86.4
2023-01-17T15:00:28.189Z,58
2023-01-17T15:03:28.441Z,45.4
2023-01-17T15:06:28.751Z,51.4
2023-01-17T15:09:28.195Z,82.1
2023-01-17T15:12:28.913Z,81.4
2023-01-17T15:15:28.993Z,75.9
2023-01-17T15:18:28.589Z,23.7
2023-01-17T15:21:28.907Z,15.9
2023-01-17T15:24:28.321Z,12.1
2023-01-17T15:27:28.590Z,10.8
2023-01-17T15:30:29.007Z,9.3
2023-01-17T15:33:28.561Z,8.1
2023-01-17T15:36:28.939Z,7.4
2023-01-17T15:39:29.017Z,6.3
2023-01-17T15:42:28.270Z,5.1
2023-01-17T15:45:28.510Z,4.8
2023-01-17T15:48:29.245Z,4.5
2023-01-17T15:51:28.467Z,4.1
2023-01-17T15:54:29.151Z,3.3
2023-01-17T15:57:28.674Z,2.1
2023-01-17T16:00:28.435Z,2.1
2023-01-17T16:03:28.669Z,2.1
2023-01-17T16:06:29.294Z,2.1
2023-01-17T16:09:28.588Z,2.1
2023-01-17T16:12:28.592Z,2.1
2023-01-17T16:15:28.779Z,2.1
2023-01-17T16:18:28.857Z,2.1
2023-01-17T16:21:28.780Z,2.1
2023-01-17T16:24:28.381Z,2.1
2023-01-17T16:27:28.860Z,2.1
2023-01-17T16:30:28.818Z,2.1
2023-01-17T16:33:28.458Z,2.1
2023-01-17T16:36:28.989Z,2.1
2023-01-17T16:39:28.349Z,2.1
2023-01-17T16:42:29.151Z,2.1
2023-01-17T16:45:28.670Z,2.1
2023-01-17T16:48:28.675Z,2.1
2023-01-17T16:51:28.509Z,2.1
2023-01-17T16:54:28.142Z,2.1
2023-01-17T17:30:30.137Z,12.1
2023-01-17T17:33:28.458Z,22.6
2023-01-17T17:36:29.102Z,26.1
2023-01-17T17:39:28.614Z,29.7
2023-01-17T17:42:29.175Z,29.5
2023-01-17T17:45:28.948Z,29.4
2023-01-17T17:48:29.121Z,29.5
2023-01-17T17:51:28.857Z,33
2023-01-17T17:54:28.453Z,43.7
2023-01-17T17:57:28.212Z,54.1
2023-01-17T18:00:28.398Z,54
2023-01-17T18:03:28.875Z,42.6
2023-01-17T18:06:28.362Z,39
2023-01-17T18:09:28.786Z,39
2023-01-17T18:12:28.457Z,39
2023-01-17T18:15:29.019Z,39
2023-01-17T18:18:28.305Z,39
2023-01-17T18:21:28.826Z,39
2023-01-17T18:24:28.604Z,39
2023-01-17T18:27:28.748Z,39
2023-01-17T18:30:29.079Z,39
2023-01-17T18:33:28.299Z,39
2023-01-17T18:36:28.680Z,39
2023-01-17T18:39:28.790Z,39
2023-01-17T18:42:28.517Z,39
2023-01-17T18:45:28.673Z,39
2023-01-17T18:48:29.011Z,39
2023-01-17T18:51:28.297Z,39
2023-01-17T18:54:28.750Z,39
2023-01-17T18:57:28.673Z,39
2023-01-17T19:00:29.372Z,39
2023-01-17T19:03:28.535Z,39
